Time;durP1;ratioP1;P1;durP2;ratioP2;P2;SDS_P1;SDS_P2;PMS_P1;PMS_P2;Temp;Humidity;BMP_temperature;BMP_pressure;BME280_temperature;BME280_humidity;BME280_pressure;Samples;Min_cycle;Max_cycle;Signal;HPM_P1;HPM_P2
2022/11/15 00:00:50;;;;;;;9.13;5.50;;;;;;;8.27;nan;97890.16;5052621;28;20225;-71
2022/11/15 00:03:25;;;;;;;11.47;5.63;;;;;;;8.27;nan;97891.00;5052770;28;20225;-71
2022/11/15 00:05:51;;;;;;;7.70;5.50;;;;;;;8.26;nan;97885.91;5052691;28;20193;-71
2022/11/15 00:08:18;;;;;;;8.40;5.93;;;;;;;8.31;nan;97892.22;5052585;28;20205;-71
2022/11/15 00:10:58;;;;;;;5.63;5.10;;;;;;;8.32;nan;97885.09;5054105;28;20229;-71
2022/11/15 00:13:25;;;;;;;5.27;4.67;;;;;;;8.34;nan;97888.34;5056249;28;20531;-71
2022/11/15 00:15:52;;;;;;;6.97;4.90;;;;;;;8.30;nan;97887.13;5057011;28;20209;-71
2022/11/15 00:18:19;;;;;;;7.33;4.50;;;;;;;8.31;nan;97888.72;5057166;28;20201;-71
2022/11/15 00:20:45;;;;;;;7.93;4.63;;;;;;;8.29;nan;97893.44;5056868;28;20231;-71
2022/11/15 00:23:12;;;;;;;5.27;4.03;;;;;;;8.26;nan;97888.53;5055984;28;20221;-71
2022/11/15 00:25:38;;;;;;;5.43;4.43;;;;;;;8.31;nan;97894.03;5056305;28;20209;-71
2022/11/15 00:28:04;;;;;;;5.20;3.47;;;;;;;8.39;nan;97885.88;5056304;28;20229;-71
2022/11/15 00:30:32;;;;;;;4.90;3.60;;;;;;;8.37;nan;97885.28;5056099;28;20252;-71
2022/11/15 00:33:03;;;;;;;6.33;3.47;;;;;;;8.38;nan;97878.94;5056199;28;20205;-72
2022/11/15 00:35:29;;;;;;;4.17;3.70;;;;;;;8.44;nan;97878.09;5056395;28;20189;-72
2022/11/15 00:37:56;;;;;;;3.53;3.17;;;;;;;8.43;nan;97879.13;5056603;28;20233;-71
2022/11/15 00:40:22;;;;;;;5.10;3.27;;;;;;;8.49;nan;97876.47;5055966;28;20227;-71
2022/11/15 00:42:48;;;;;;;8.17;3.70;;;;;;;8.69;nan;97876.38;5055977;28;20205;-71
2022/11/15 00:45:15;;;;;;;5.20;4.10;;;;;;;8.71;nan;97874.31;5055946;28;20201;-72
2022/11/15 00:47:41;;;;;;;5.47;3.70;;;;;;;8.65;nan;97864.56;5055903;28;20212;-71
2022/11/15 00:50:08;;;;;;;6.17;4.07;;;;;;;8.68;nan;97864.94;5055750;28;20217;-71
2022/11/15 00:52:34;;;;;;;4.23;3.83;;;;;;;8.59;nan;97865.38;5055790;28;20201;-71
2022/11/15 00:55:01;;;;;;;5.80;4.00;;;;;;;8.57;nan;97862.97;5055803;28;20206;-71
2022/11/15 00:57:27;;;;;;;6.90;4.30;;;;;;;8.58;nan;97863.78;5055735;28;20216;-72
2022/11/15 00:59:53;;;;;;;6.27;3.57;;;;;;;8.44;nan;97857.72;5055721;28;20204;-71
2022/11/15 01:02:20;;;;;;;6.37;4.23;;;;;;;8.40;nan;97853.06;5055503;28;20244;-71
2022/11/15 01:04:46;;;;;;;7.00;3.90;;;;;;;8.37;nan;97851.63;5055263;28;20209;-71
2022/11/15 01:07:13;;;;;;;3.90;3.17;;;;;;;8.42;nan;97851.81;5055506;28;20205;-72
2022/11/15 01:09:39;;;;;;;4.23;3.77;;;;;;;8.41;nan;97852.84;5055465;28;20248;-71
2022/11/15 01:12:06;;;;;;;4.57;3.13;;;;;;;8.40;nan;97853.06;5055395;28;20233;-72
2022/11/15 01:14:32;;;;;;;6.20;3.80;;;;;;;8.36;nan;97854.47;5055475;28;20573;-71
2022/11/15 01:16:59;;;;;;;3.80;3.20;;;;;;;8.33;nan;97853.06;5055437;28;20548;-71
2022/11/15 01:19:25;;;;;;;3.47;3.17;;;;;;;8.35;nan;97843.09;5055358;28;20205;-71
2022/11/15 01:21:52;;;;;;;3.80;3.50;;;;;;;8.21;nan;97846.81;5053766;28;20230;-71
2022/11/15 01:24:19;;;;;;;6.10;3.47;;;;;;;8.24;nan;97845.59;5055188;28;20205;-72
2022/11/15 01:26:45;;;;;;;5.50;3.53;;;;;;;8.17;nan;97856.16;5055186;28;20205;-72
2022/11/15 01:29:11;;;;;;;6.50;3.57;;;;;;;8.07;nan;97839.91;5054989;28;20239;-71
2022/11/15 01:31:38;;;;;;;4.20;3.40;;;;;;;7.95;nan;97841.56;5055014;28;20232;-72
2022/11/15 01:34:05;;;;;;;4.70;3.37;;;;;;;7.85;nan;97841.19;5055101;28;20209;-71
2022/11/15 01:36:31;;;;;;;4.43;3.60;;;;;;;7.77;nan;97840.56;5054947;28;20209;-71
2022/11/15 01:38:59;;;;;;;5.93;3.73;;;;;;;7.69;nan;97846.09;5054957;28;20209;-72
2022/11/15 01:41:34;;;;;;;5.50;3.57;;;;;;;7.59;nan;97846.50;5054853;28;20229;-71
2022/11/15 01:44:31;;;;;;;4.10;3.70;;;;;;;7.56;nan;97846.91;5054865;28;20193;-71
2022/11/15 01:46:59;;;;;;;5.03;3.97;;;;;;;7.57;nan;97847.72;5054444;28;20560;-72
2022/11/15 01:49:29;;;;;;;4.63;3.90;;;;;;;7.49;nan;97840.00;5054389;28;20229;-71
2022/11/15 01:51:56;;;;;;;4.67;3.63;;;;;;;7.46;nan;97840.44;5054256;28;20704;-71
2022/11/15 01:54:25;;;;;;;4.70;3.87;;;;;;;7.42;nan;97840.00;5054664;28;20205;-72
2022/11/15 01:57:02;;;;;;;5.73;4.23;;;;;;;7.39;nan;97835.13;5052995;28;20695;-71
2022/11/15 01:59:29;;;;;;;5.20;4.00;;;;;;;7.36;nan;97832.88;5054598;28;20185;-71
2022/11/15 02:01:56;;;;;;;8.03;3.83;;;;;;;7.34;nan;97842.03;5054424;28;20227;-72
2022/11/15 02:04:28;;;;;;;5.27;4.07;;;;;;;7.33;nan;97822.72;5054435;28;20209;-71
2022/11/15 02:06:54;;;;;;;5.30;4.37;;;;;;;7.35;nan;97825.16;5054405;28;20205;-71
2022/11/15 02:09:21;;;;;;;6.37;4.30;;;;;;;7.38;nan;97822.13;5053982;28;20223;-71
2022/11/15 02:11:49;;;;;;;6.20;4.30;;;;;;;7.44;nan;97822.13;5054192;28;20240;-71
2022/11/15 02:14:20;;;;;;;5.17;4.27;;;;;;;7.44;nan;97816.00;5053042;28;20227;-71
2022/11/15 02:17:00;;;;;;;6.97;4.00;;;;;;;7.48;nan;97814.56;5054119;28;20194;-71
2022/11/15 02:19:59;;;;;;;5.80;4.00;;;;;;;7.51;nan;97814.97;5053039;28;20249;-71
2022/11/15 02:22:42;;;;;;;4.40;3.97;;;;;;;7.59;nan;97806.00;5052411;28;20219;-71
2022/11/15 02:25:39;;;;;;;5.07;4.43;;;;;;;7.62;nan;97802.94;5053051;28;20193;-71
2022/11/15 02:28:30;;;;;;;7.17;4.33;;;;;;;7.63;nan;97800.09;5054090;28;20186;-71
2022/11/15 02:31:05;;;;;;;5.67;4.40;;;;;;;7.68;nan;97794.19;5053924;28;20256;-71
2022/11/15 02:33:32;;;;;;;5.80;4.20;;;;;;;7.76;nan;97788.69;5053434;28;20633;-71
2022/11/15 02:36:01;;;;;;;7.37;3.97;;;;;;;7.84;nan;97785.81;5053888;28;20205;-71
2022/11/15 02:38:34;;;;;;;5.27;4.00;;;;;;;7.76;nan;97783.38;5053876;28;20207;-71
2022/11/15 02:41:07;;;;;;;6.60;3.90;;;;;;;7.81;nan;97786.22;5053448;28;20228;-71
2022/11/15 02:43:59;;;;;;;5.43;3.90;;;;;;;7.86;nan;97778.47;5053852;28;20193;-72
2022/11/15 02:49:33;;;;;;;4.17;3.20;;;;;;;7.83;nan;97779.69;5053505;28;20240;-71
2022/11/15 02:52:00;;;;;;;6.83;3.70;;;;;;;7.80;nan;97785.41;5053577;28;20240;-71
2022/11/15 02:54:30;;;;;;;4.13;3.67;;;;;;;7.77;nan;97777.88;5053662;28;20209;-72
2022/11/15 02:57:05;;;;;;;7.63;3.30;;;;;;;7.76;nan;97768.34;5053312;28;20194;-71
2022/11/15 02:59:59;;;;;;;5.70;3.53;;;;;;;7.75;nan;97777.28;5053316;28;20182;-71
2022/11/15 03:02:52;;;;;;;4.43;3.77;;;;;;;7.71;nan;97775.25;5054027;28;20196;-71
2022/11/15 03:05:40;;;;;;;4.20;3.50;;;;;;;7.68;nan;97771.19;5053569;28;20194;-71
2022/11/15 03:08:32;;;;;;;5.17;3.30;;;;;;;7.85;nan;97766.25;5053508;28;20193;-71
2022/11/15 03:11:09;;;;;;;4.13;3.43;;;;;;;7.85;nan;97756.50;5053355;28;20240;-71
2022/11/15 03:14:11;;;;;;;3.90;3.53;;;;;;;7.68;nan;97762.44;5053148;28;20562;-71
2022/11/15 03:17:13;;;;;;;5.10;3.60;;;;;;;7.54;nan;97752.91;5045769;28;20217;-72
2022/11/15 03:19:48;;;;;;;6.77;3.30;;;;;;;7.52;nan;97754.97;5051312;28;20200;-71
2022/11/15 03:22:19;;;;;;;4.17;3.60;;;;;;;7.47;nan;97752.13;5053025;28;20241;-71
2022/11/15 03:24:49;;;;;;;6.60;4.60;;;;;;;7.53;nan;97748.63;5053302;28;20200;-71
2022/11/15 03:27:20;;;;;;;4.83;3.40;;;;;;;7.43;nan;97751.69;5053266;28;20216;-71
2022/11/15 03:30:01;;;;;;;6.63;3.93;;;;;;;7.37;nan;97744.59;5052942;28;20599;-72
2022/11/15 03:32:31;;;;;;;7.00;4.00;;;;;;;7.37;nan;97751.75;5053304;28;20199;-71
2022/11/15 03:35:15;;;;;;;6.23;4.07;;;;;;;7.28;nan;97748.47;5052020;28;20199;-72
2022/11/15 03:37:55;;;;;;;4.90;4.37;;;;;;;7.28;nan;97752.97;5053238;28;20190;-71
2022/11/15 03:40:43;;;;;;;6.10;4.40;;;;;;;7.27;nan;97743.38;5051686;28;20227;-72
2022/11/15 03:43:48;;;;;;;5.77;3.93;;;;;;;7.28;nan;97737.09;5052903;28;20195;-72
2022/11/15 03:46:24;;;;;;;5.57;4.60;;;;;;;7.36;nan;97735.03;5034411;28;20208;-72
2022/11/15 03:48:55;;;;;;;6.10;4.10;;;;;;;7.40;nan;97719.56;5056789;28;20200;-72
2022/11/15 03:51:22;;;;;;;4.83;4.27;;;;;;;7.34;nan;97731.00;5056867;28;20239;-71
2022/11/15 03:53:48;;;;;;;6.17;4.63;;;;;;;7.33;nan;97730.16;5056830;28;20209;-71
2022/11/15 03:56:14;;;;;;;7.03;4.63;;;;;;;7.39;nan;97725.88;5056818;28;20201;-71
2022/11/15 03:58:41;;;;;;;6.80;4.17;;;;;;;7.36;nan;97724.47;5056834;28;20201;-71
2022/11/15 04:01:07;;;;;;;4.57;4.00;;;;;;;7.32;nan;97735.66;5056671;28;20308;-71
2022/11/15 04:03:34;;;;;;;4.70;3.70;;;;;;;7.28;nan;97722.03;5056661;28;20205;-71
2022/11/15 04:06:00;;;;;;;6.00;4.27;;;;;;;7.28;nan;97718.59;5056617;28;20209;-71
2022/11/15 04:08:26;;;;;;;4.47;3.93;;;;;;;7.38;nan;97724.28;5056361;28;20714;-71
2022/11/15 04:10:53;;;;;;;6.37;4.60;;;;;;;7.40;nan;97724.88;5056167;28;20225;-71
2022/11/15 04:13:19;;;;;;;8.03;4.60;;;;;;;7.43;nan;97724.47;5056556;28;20201;-71
2022/11/15 04:15:45;;;;;;;5.27;4.27;;;;;;;7.41;nan;97729.94;5056536;28;20208;-71
2022/11/15 04:18:12;;;;;;;6.90;4.27;;;;;;;7.44;nan;97731.38;5056413;28;20205;-72
2022/11/15 04:26:26;;;;;;;6.47;4.57;;;;;;;7.48;nan;97717.53;5053421;28;20193;-71
2022/11/15 04:31:36;;;;;;;6.37;4.33;;;;;;;7.47;nan;97718.53;5056024;28;20676;-72
2022/11/15 04:34:03;;;;;;;7.47;4.33;;;;;;;7.51;nan;97724.25;5055906;28;20205;-71
2022/11/15 04:39:13;;;;;;;6.57;4.13;;;;;;;7.52;nan;97712.63;5055736;28;20168;-71
2022/11/15 04:41:39;;;;;;;6.40;3.57;;;;;;;7.50;nan;97712.84;5055667;28;20221;-71
2022/11/15 04:44:06;;;;;;;5.00;3.90;;;;;;;7.47;nan;97710.59;5055474;28;20206;-71
2022/11/15 04:46:33;;;;;;;7.20;3.70;;;;;;;7.43;nan;97703.31;5055816;28;20210;-72
2022/11/15 04:48:59;;;;;;;3.83;3.43;;;;;;;7.42;nan;97699.03;5055424;28;20209;-71
2022/11/15 04:51:26;;;;;;;6.10;4.20;;;;;;;7.41;nan;97705.31;5055746;28;20229;-71
2022/11/15 04:53:52;;;;;;;5.47;3.70;;;;;;;7.41;nan;97702.69;5055417;28;20672;-72
2022/11/15 04:56:19;;;;;;;4.63;3.70;;;;;;;7.38;nan;97695.97;5055603;28;20227;-71
2022/11/15 04:58:45;;;;;;;3.97;3.53;;;;;;;7.37;nan;97693.56;5055220;28;20209;-71
2022/11/15 05:01:14;;;;;;;6.07;4.00;;;;;;;7.30;nan;97687.47;5055194;28;20247;-71
2022/11/15 05:06:34;;;;;;;5.87;3.70;;;;;;;7.19;nan;97696.84;5049142;28;20209;-71
2022/11/15 05:09:00;;;;;;;6.13;4.00;;;;;;;7.16;nan;97688.50;5054859;28;20205;-71
2022/11/15 05:11:27;;;;;;;5.07;3.50;;;;;;;7.19;nan;97690.75;5055258;28;20233;-71
2022/11/15 05:13:54;;;;;;;5.47;3.57;;;;;;;7.23;nan;97676.06;5055254;28;20201;-71
2022/11/15 05:16:20;;;;;;;4.50;3.60;;;;;;;7.22;nan;97677.09;5055332;28;20563;-72
2022/11/15 05:18:47;;;;;;;7.00;3.10;;;;;;;7.25;nan;97674.06;5055109;28;20232;-71
2022/11/15 05:21:15;;;;;;;6.03;3.37;;;;;;;7.25;nan;97674.06;5054793;28;20231;-71
2022/11/15 05:23:42;;;;;;;4.50;3.20;;;;;;;7.22;nan;97670.00;5055130;28;20189;-71
2022/11/15 05:26:10;;;;;;;4.70;3.63;;;;;;;7.18;nan;97679.34;5054667;28;20209;-71
2022/11/15 05:28:36;;;;;;;6.67;3.53;;;;;;;7.18;nan;97678.53;5054538;28;20710;-71
2022/11/15 05:31:09;;;;;;;3.93;3.37;;;;;;;7.15;nan;97676.31;5054741;28;20261;-71
2022/11/15 05:33:38;;;;;;;3.83;3.37;;;;;;;7.19;nan;97673.03;5054852;28;20209;-71
2022/11/15 05:36:24;;;;;;;5.67;3.60;;;;;;;7.25;nan;97671.41;5054424;28;20661;-71
2022/11/15 05:38:50;;;;;;;4.03;3.33;;;;;;;7.26;nan;97665.94;5054785;28;20235;-71
2022/11/15 05:41:21;;;;;;;8.87;3.97;;;;;;;7.32;nan;97666.91;5053830;28;20622;-71
2022/11/15 05:43:51;;;;;;;6.17;3.67;;;;;;;7.40;nan;97662.22;5053923;28;20599;-72
2022/11/15 05:46:18;;;;;;;4.83;3.30;;;;;;;7.38;nan;97661.59;5053884;28;20246;-71
2022/11/15 05:48:47;;;;;;;5.30;3.97;;;;;;;7.43;nan;97661.00;5054409;28;20211;-71
2022/11/15 05:51:16;;;;;;;4.67;3.80;;;;;;;7.41;nan;97657.72;5052970;28;20225;-71
2022/11/15 05:53:43;;;;;;;6.00;4.03;;;;;;;7.42;nan;97659.38;5054430;28;20201;-71
2022/11/15 05:56:10;;;;;;;6.00;4.17;;;;;;;7.46;nan;97663.22;5054255;28;20209;-71
2022/11/15 05:58:37;;;;;;;7.10;4.37;;;;;;;7.44;nan;97659.97;5054919;28;20221;-71
2022/11/15 06:01:04;;;;;;;5.30;4.40;;;;;;;7.44;nan;97668.72;5052822;28;20228;-71
2022/11/15 06:03:30;;;;;;;6.97;3.90;;;;;;;7.40;nan;97662.22;5053895;28;20205;-71
2022/11/15 06:05:57;;;;;;;7.33;4.50;;;;;;;7.37;nan;97669.75;5053931;28;20213;-71
2022/11/15 06:08:23;;;;;;;8.00;4.53;;;;;;;7.35;nan;97666.50;5053212;28;20207;-71
2022/11/15 06:10:50;;;;;;;7.60;4.97;;;;;;;7.30;nan;97668.97;5053187;28;20641;-71
2022/11/15 06:13:16;;;;;;;5.30;4.53;;;;;;;7.27;nan;97672.81;5053718;28;20233;-71
2022/11/15 06:15:43;;;;;;;7.07;4.30;;;;;;;7.27;nan;97672.00;5054063;28;20211;-71
2022/11/15 06:18:09;;;;;;;7.47;5.20;;;;;;;7.21;nan;97667.56;5053596;28;20211;-71
2022/11/15 06:20:35;;;;;;;7.53;4.43;;;;;;;7.25;nan;97666.13;5053157;28;20312;-71
2022/11/15 06:23:04;;;;;;;6.77;5.10;;;;;;;7.22;nan;97675.28;5053031;28;20214;-72
2022/11/15 06:25:31;;;;;;;5.93;5.20;;;;;;;7.16;nan;97675.28;5053068;28;20296;-71
2022/11/15 06:27:59;;;;;;;7.50;5.00;;;;;;;7.19;nan;97669.59;5052935;28;20686;-71
2022/11/15 06:30:27;;;;;;;7.83;5.70;;;;;;;7.19;nan;97659.81;5053179;28;20229;-70
2022/11/15 06:33:00;;;;;;;6.67;5.30;;;;;;;7.21;nan;97671.03;5053185;28;20570;-70
2022/11/15 06:35:26;;;;;;;9.90;4.97;;;;;;;7.18;nan;97668.78;5052636;28;20205;-72
2022/11/15 06:37:53;;;;;;;8.27;5.40;;;;;;;7.21;nan;97665.75;5052865;28;20210;-70
2022/11/15 06:40:19;;;;;;;6.30;4.67;;;;;;;7.27;nan;97672.00;5053251;28;20228;-70
2022/11/15 06:42:46;;;;;;;9.93;5.17;;;;;;;7.31;nan;97667.94;5052415;28;20604;-70
2022/11/15 06:45:12;;;;;;;7.97;5.60;;;;;;;7.34;nan;97662.25;5052956;28;20231;-72
2022/11/15 06:47:46;;;;;;;5.87;4.80;;;;;;;7.42;nan;97667.31;5053192;28;20224;-72
2022/11/15 06:50:13;;;;;;;12.40;5.27;;;;;;;7.41;nan;97674.41;5052253;28;20208;-70
2022/11/15 06:52:39;;;;;;;9.20;4.80;;;;;;;7.41;nan;97674.41;5052463;28;20216;-70
2022/11/15 06:55:06;;;;;;;5.70;4.50;;;;;;;7.40;nan;97677.25;5052528;28;20205;-70
2022/11/15 06:57:33;;;;;;;7.17;4.80;;;;;;;7.40;nan;97682.56;5052924;28;20201;-70
2022/11/15 06:59:59;;;;;;;6.80;4.40;;;;;;;7.43;nan;97682.94;5052518;28;20206;-72
2022/11/15 07:02:25;;;;;;;8.27;5.07;;;;;;;7.42;nan;97683.97;5053644;28;20205;-70
2022/11/15 07:04:52;;;;;;;10.93;4.47;;;;;;;7.50;nan;97688.22;5052633;28;20201;-70
2022/11/15 07:07:18;;;;;;;9.43;5.03;;;;;;;7.53;nan;97682.50;5052837;28;20295;-70
2022/11/15 07:09:44;;;;;;;10.80;4.50;;;;;;;7.59;nan;97685.13;5053036;28;20208;-70
2022/11/15 07:12:11;;;;;;;7.27;4.57;;;;;;;7.66;nan;97693.06;5052515;28;20684;-70
2022/11/15 07:14:37;;;;;;;9.67;4.47;;;;;;;7.75;nan;97691.81;5053290;28;20214;-70
2022/11/15 07:17:05;;;;;;;9.87;4.73;;;;;;;7.78;nan;97683.44;5052900;28;20209;-70
2022/11/15 07:19:32;;;;;;;8.30;4.90;;;;;;;7.82;nan;97682.81;5052649;28;20216;-70
2022/11/15 07:21:58;;;;;;;8.07;4.90;;;;;;;7.88;nan;97683.81;5056222;28;20237;-70
2022/11/15 07:24:24;;;;;;;9.17;4.73;;;;;;;7.95;nan;97687.22;5056720;28;20211;-71
2022/11/15 07:26:51;;;;;;;9.83;5.13;;;;;;;8.01;nan;97686.41;5056959;28;20201;-70
2022/11/15 07:29:17;;;;;;;8.90;5.07;;;;;;;8.03;nan;97690.44;5056830;28;20211;-71
2022/11/15 07:31:43;;;;;;;7.50;4.60;;;;;;;8.13;nan;97689.97;5057008;28;20231;-70
2022/11/15 07:34:10;;;;;;;5.23;4.30;;;;;;;8.24;nan;97684.06;5056428;28;20225;-70
2022/11/15 07:36:36;;;;;;;6.57;4.27;;;;;;;8.37;nan;97682.13;5056173;28;20213;-71
2022/11/15 07:39:03;;;;;;;9.93;4.93;;;;;;;8.53;nan;97686.91;5056447;28;20209;-71
2022/11/15 07:41:30;;;;;;;10.80;5.10;;;;;;;8.71;nan;97684.34;5056383;28;20585;-71
2022/11/15 07:43:57;;;;;;;10.37;4.60;;;;;;;8.90;nan;97682.53;5056552;28;20263;-70
2022/11/15 07:46:24;;;;;;;9.77;4.50;;;;;;;9.03;nan;97677.09;5056101;28;20209;-70
2022/11/15 07:48:50;;;;;;;11.07;4.27;;;;;;;9.21;nan;97677.16;5056195;28;20574;-71
2022/11/15 07:51:17;;;;;;;8.17;4.27;;;;;;;9.29;nan;97672.38;5056359;28;20231;-71
2022/11/15 07:53:44;;;;;;;7.87;4.33;;;;;;;9.33;nan;97670.09;5056312;28;20205;-70
2022/11/15 07:56:11;;;;;;;5.83;3.67;;;;;;;9.30;nan;97663.38;5056153;28;20583;-70
2022/11/15 07:58:37;;;;;;;8.93;4.50;;;;;;;9.31;nan;97669.47;5056477;28;20219;-71
2022/11/15 08:01:05;;;;;;;10.97;5.27;;;;;;;9.42;nan;97666.91;5056358;28;20229;-71
2022/11/15 08:03:33;;;;;;;13.57;5.87;;;;;;;9.32;nan;97669.28;5055770;28;20215;-71
2022/11/15 08:06:00;;;;;;;10.17;5.57;;;;;;;9.31;nan;97662.34;5055918;28;20213;-71
2022/11/15 08:08:26;;;;;;;11.40;5.20;;;;;;;9.35;nan;97663.53;5055951;28;20232;-71
2022/11/15 08:10:52;;;;;;;18.77;6.80;;;;;;;9.43;nan;97662.44;5056059;28;20229;-71
2022/11/15 08:13:19;;;;;;;11.17;5.83;;;;;;;9.52;nan;97661.09;5056049;28;20673;-71
2022/11/15 08:15:45;;;;;;;10.70;6.30;;;;;;;9.51;nan;97664.78;5055616;28;20215;-71
2022/11/15 08:18:15;;;;;;;9.40;6.40;;;;;;;9.57;nan;97656.75;5055710;28;20217;-71
2022/11/15 08:20:42;;;;;;;8.33;6.13;;;;;;;9.65;nan;97655.63;5055671;28;20678;-71
2022/11/15 08:23:10;;;;;;;12.43;6.17;;;;;;;9.65;nan;97656.44;5055481;28;20377;-71
2022/11/15 08:25:37;;;;;;;9.07;6.23;;;;;;;9.71;nan;97657.41;5055384;28;20244;-70
2022/11/15 08:28:06;;;;;;;13.30;6.07;;;;;;;9.79;nan;97662.41;5055776;28;20215;-70
2022/11/15 08:30:37;;;;;;;8.33;5.87;;;;;;;9.89;nan;97652.88;5055857;28;20320;-70
2022/11/15 08:33:04;;;;;;;14.03;6.43;;;;;;;9.93;nan;97650.59;5055597;28;20193;-70
2022/11/15 08:35:30;;;;;;;11.03;5.90;;;;;;;9.92;nan;97647.09;5055497;28;20208;-70
2022/11/15 08:37:57;;;;;;;8.07;5.00;;;;;;;9.87;nan;97638.22;5055118;28;20664;-70
2022/11/15 08:40:23;;;;;;;11.93;5.37;;;;;;;9.87;nan;97643.53;5055216;28;20742;-70
2022/11/15 08:42:50;;;;;;;11.23;5.10;;;;;;;9.96;nan;97637.66;5055578;28;20258;-70
2022/11/15 08:45:16;;;;;;;10.10;5.57;;;;;;;9.97;nan;97634.00;5055438;28;20227;-70
2022/11/15 08:47:42;;;;;;;11.67;5.70;;;;;;;9.96;nan;97629.69;5055641;28;20215;-70
2022/11/15 08:50:09;;;;;;;8.40;5.77;;;;;;;10.01;nan;97623.72;5055479;28;20213;-70
2022/11/15 08:52:36;;;;;;;7.57;5.10;;;;;;;10.19;nan;97627.16;5055535;28;20229;-70
2022/11/15 08:55:02;;;;;;;6.37;5.10;;;;;;;10.33;nan;97622.47;5055332;28;20676;-70
2022/11/15 08:57:31;;;;;;;9.10;5.40;;;;;;;10.36;nan;97625.47;5055415;28;20211;-70
2022/11/15 08:59:58;;;;;;;8.03;4.60;;;;;;;10.44;nan;97619.84;5055218;28;20205;-70
2022/11/15 09:02:25;;;;;;;9.27;4.60;;;;;;;10.59;nan;97612.22;5055307;28;20201;-70
2022/11/15 09:04:51;;;;;;;9.07;5.03;;;;;;;10.70;nan;97621.25;5055326;28;20206;-70
2022/11/15 09:07:18;;;;;;;9.27;4.87;;;;;;;10.96;nan;97618.94;5055589;28;20211;-70
2022/11/15 09:09:44;;;;;;;6.37;4.97;;;;;;;11.08;nan;97614.44;5054714;28;20691;-70
2022/11/15 09:12:10;;;;;;;8.70;4.43;;;;;;;11.19;nan;97612.81;5055769;28;20281;-70
2022/11/15 09:14:37;;;;;;;10.27;4.83;;;;;;;11.14;nan;97620.69;5054808;28;20206;-70
2022/11/15 09:17:04;;;;;;;7.27;4.60;;;;;;;11.14;nan;97613.50;5054845;28;20221;-70
2022/11/15 09:19:30;;;;;;;6.47;4.53;;;;;;;11.31;nan;97613.63;5054500;28;20213;-70
2022/11/15 09:21:57;;;;;;;4.10;3.70;;;;;;;11.56;nan;97616.78;5054636;28;20238;-70
2022/11/15 09:24:23;;;;;;;9.07;5.07;;;;;;;11.74;nan;97619.31;5054566;28;20561;-70
2022/11/15 09:26:52;;;;;;;9.97;5.47;;;;;;;11.57;nan;97618.41;5054502;28;20202;-71
2022/11/15 09:29:19;;;;;;;6.17;5.43;;;;;;;11.42;nan;97612.78;5054374;28;20710;-70
2022/11/15 09:31:45;;;;;;;8.87;5.20;;;;;;;11.32;nan;97615.22;5054735;28;20318;-71
2022/11/15 09:34:12;;;;;;;7.63;5.23;;;;;;;11.37;nan;97609.19;5054614;28;20218;-71
2022/11/15 09:36:39;;;;;;;7.57;5.47;;;;;;;11.57;nan;97607.75;5054559;28;20219;-71
2022/11/15 09:39:05;;;;;;;12.00;5.67;;;;;;;11.53;nan;97613.78;5054703;28;20207;-71
2022/11/15 09:42:01;;;;;;;6.23;4.33;;;;;;;11.68;nan;97606.13;5055037;28;20222;-71
2022/11/15 09:44:33;;;;;;;5.77;4.30;;;;;;;11.78;nan;97603.66;5053264;28;20203;-71
2022/11/15 09:47:34;;;;;;;8.03;4.53;;;;;;;11.78;nan;97601.81;5054066;28;20212;-71
2022/11/15 09:50:08;;;;;;;9.50;4.40;;;;;;;12.04;nan;97597.78;5053233;28;20193;-71
2022/11/15 09:52:37;;;;;;;5.33;3.77;;;;;;;12.18;nan;97599.91;5054100;28;20214;-71
2022/11/15 09:55:07;;;;;;;8.10;4.40;;;;;;;12.52;nan;97592.75;5053846;28;20642;-71
2022/11/15 09:57:41;;;;;;;7.33;3.90;;;;;;;12.47;nan;97584.66;5054051;28;20211;-71
2022/11/15 10:00:44;;;;;;;4.17;3.77;;;;;;;12.56;nan;97593.88;5054141;28;20189;-71
2022/11/15 10:03:17;;;;;;;8.60;3.90;;;;;;;12.73;nan;97595.50;5053641;28;20205;-71
2022/11/15 10:05:56;;;;;;;4.13;3.30;;;;;;;12.65;nan;97582.56;5054425;28;20205;-70
2022/11/15 10:08:37;;;;;;;4.80;3.53;;;;;;;12.86;nan;97581.81;5054711;28;20208;-71
2022/11/15 10:11:10;;;;;;;6.93;3.63;;;;;;;13.12;nan;97575.81;5053916;28;20231;-71
2022/11/15 10:13:42;;;;;;;8.77;3.60;;;;;;;12.74;nan;97570.44;5054140;28;20217;-73
2022/11/15 10:16:18;;;;;;;5.23;3.43;;;;;;;12.68;nan;97575.94;5053860;28;20196;-71
2022/11/15 10:19:02;;;;;;;8.03;3.60;;;;;;;12.73;nan;97576.81;5054021;28;20215;-71
2022/11/15 10:21:58;;;;;;;7.10;4.20;;;;;;;12.61;nan;97576.09;5053727;28;20265;-71
2022/11/15 10:24:28;;;;;;;8.03;4.00;;;;;;;12.58;nan;97570.44;5035130;28;20212;-71
2022/11/15 10:26:56;;;;;;;4.97;3.77;;;;;;;12.52;nan;97566.88;5053764;28;20556;-70
2022/11/15 10:29:24;;;;;;;9.43;3.83;;;;;;;12.46;nan;97557.19;5053213;28;20733;-71
2022/11/15 10:31:51;;;;;;;9.93;4.00;;;;;;;12.44;nan;97553.94;5053621;28;20235;-71
2022/11/15 10:34:23;;;;;;;10.30;3.70;;;;;;;12.42;nan;97545.41;5053695;28;20209;-71
2022/11/15 10:37:01;;;;;;;9.90;3.97;;;;;;;12.35;nan;97550.06;5053799;28;20193;-71
2022/11/15 10:39:28;;;;;;;7.17;4.00;;;;;;;12.30;nan;97547.31;5053043;28;20564;-71
2022/11/15 10:41:55;;;;;;;7.83;4.00;;;;;;;12.27;nan;97547.00;5053287;28;20225;-71
2022/11/15 10:44:22;;;;;;;11.37;4.70;;;;;;;12.26;nan;97548.84;5053036;28;20245;-71
2022/11/15 10:47:27;;;;;;;7.30;4.50;;;;;;;12.23;nan;97545.88;5053089;28;20215;-71
2022/11/15 10:49:58;;;;;;;7.20;4.30;;;;;;;12.21;nan;97538.13;5051429;28;20671;-71
2022/11/15 10:52:25;;;;;;;8.57;4.50;;;;;;;12.24;nan;97532.31;5052718;28;20206;-71
2022/11/15 10:54:58;;;;;;;7.73;4.20;;;;;;;12.26;nan;97521.41;5053208;28;20201;-71
2022/11/15 10:57:40;;;;;;;7.37;5.00;;;;;;;12.32;nan;97531.91;5052887;28;20628;-71
2022/11/15 11:00:39;;;;;;;9.23;5.10;;;;;;;12.29;nan;97528.94;5053574;28;20575;-71
2022/11/15 11:03:27;;;;;;;6.27;4.70;;;;;;;12.24;nan;97526.97;5053457;28;20192;-71
2022/11/15 11:06:05;;;;;;;9.67;5.23;;;;;;;12.19;nan;97523.41;5053178;28;20201;-71
2022/11/15 11:08:33;;;;;;;9.03;5.30;;;;;;;12.30;nan;97515.34;5053098;28;20197;-71
2022/11/15 11:11:02;;;;;;;10.23;5.13;;;;;;;12.21;nan;97522.13;5052832;28;20243;-71
2022/11/15 11:13:30;;;;;;;8.70;5.57;;;;;;;12.20;nan;97523.19;5052740;28;20216;-71
2022/11/15 11:16:34;;;;;;;8.17;4.87;;;;;;;12.14;nan;97516.16;5052675;28;20284;-71
2022/11/15 11:19:22;;;;;;;11.07;5.33;;;;;;;12.21;nan;97522.13;5036895;28;20302;-71
2022/11/15 11:22:03;;;;;;;6.73;4.50;;;;;;;12.18;nan;97525.28;5052492;28;20598;-71
2022/11/15 11:24:38;;;;;;;10.07;5.27;;;;;;;12.23;nan;97509.38;5052884;28;20193;-71
2022/11/15 11:27:08;;;;;;;10.70;5.40;;;;;;;12.42;nan;97513.41;5052629;28;20193;-71
2022/11/15 11:29:40;;;;;;;7.07;4.50;;;;;;;12.37;nan;97513.34;5052826;28;20231;-71
2022/11/15 11:32:31;;;;;;;10.47;4.60;;;;;;;12.56;nan;97503.22;5052871;28;20601;-72
2022/11/15 11:35:06;;;;;;;8.03;5.33;;;;;;;12.61;nan;97496.09;5052870;28;20193;-71
2022/11/15 11:37:48;;;;;;;9.87;5.17;;;;;;;12.60;nan;97494.50;5052358;28;20299;-71
2022/11/15 11:40:38;;;;;;;9.90;5.20;;;;;;;12.68;nan;97494.06;5052804;28;20209;-71
2022/11/15 11:43:33;;;;;;;7.90;4.70;;;;;;;12.76;nan;97488.31;5052554;28;20193;-71
2022/11/15 11:46:18;;;;;;;10.07;5.37;;;;;;;12.76;nan;97487.50;5052737;28;20189;-71
2022/11/15 11:48:48;;;;;;;10.10;5.10;;;;;;;12.82;nan;97478.50;5052663;28;20292;-71
2022/11/15 11:51:24;;;;;;;7.13;4.80;;;;;;;12.94;nan;97474.66;5052426;28;20227;-71
2022/11/15 11:54:06;;;;;;;8.57;5.17;;;;;;;13.03;nan;97469.75;5052596;28;20200;-71
2022/11/15 11:56:35;;;;;;;9.97;5.13;;;;;;;12.93;nan;97462.38;5052719;28;20196;-71
2022/11/15 11:59:13;;;;;;;6.83;4.83;;;;;;;12.92;nan;97465.31;5052607;28;20205;-71
2022/11/15 12:01:44;;;;;;;8.33;5.30;;;;;;;12.93;nan;97464.28;5052123;28;20730;-71
2022/11/15 12:04:26;;;;;;;10.20;5.47;;;;;;;13.00;nan;97467.56;5052121;28;20208;-70
2022/11/15 12:07:00;;;;;;;8.53;5.27;;;;;;;13.06;nan;97462.06;5053907;28;20208;-71
2022/11/15 12:09:50;;;;;;;9.00;5.33;;;;;;;13.13;nan;97459.19;5055926;28;20200;-71
2022/11/15 12:13:10;;;;;;;6.97;5.27;;;;;;;13.17;nan;97452.31;5050273;28;20233;-71
2022/11/15 12:15:50;;;;;;;5.43;4.77;;;;;;;13.28;nan;97444.16;5039725;28;20205;-71
2022/11/15 12:18:17;;;;;;;8.60;5.27;;;;;;;13.30;nan;97435.91;5055939;28;20231;-71
2022/11/15 12:20:58;;;;;;;7.23;4.47;;;;;;;13.18;nan;97433.38;5055983;28;20233;-71
2022/11/15 12:23:29;;;;;;;7.67;4.63;;;;;;;13.12;nan;97439.69;5055712;28;20763;-71
2022/11/15 12:26:03;;;;;;;7.53;4.73;;;;;;;13.03;nan;97441.19;5056096;28;20192;-71
2022/11/15 12:28:44;;;;;;;5.80;4.43;;;;;;;13.06;nan;97443.38;5055774;28;20253;-71
2022/11/15 12:31:43;;;;;;;9.33;5.23;;;;;;;13.10;nan;97435.66;5055657;28;20228;-71
2022/11/15 12:34:21;;;;;;;5.60;4.17;;;;;;;13.05;nan;97433.75;5055722;28;20201;-71